createdAt,value
2017-08-30T00:00:30.646Z,51.75
2017-08-30T00:02:58.367Z,36.28
2017-08-30T00:05:26.015Z,24.60
2017-08-30T00:07:53.667Z,54.15
2017-08-30T00:10:22.579Z,36.33
2017-08-30T00:12:50.256Z,36.13
2017-08-30T00:15:18.126Z,63.08
2017-08-30T00:17:45.790Z,31.50
2017-08-30T00:20:13.437Z,30.08
2017-08-30T00:22:41.180Z,17.42
2017-08-30T00:25:20.897Z,33.05
2017-08-30T00:27:48.581Z,35.15
2017-08-30T00:30:17.677Z,19.73
2017-08-30T00:33:03.000Z,30.33
2017-08-30T00:35:37.272Z,33.72
2017-08-30T00:38:11.837Z,32.90
2017-08-30T00:40:46.126Z,21.42
2017-08-30T00:43:16.170Z,41.10
2017-08-30T00:45:44.517Z,46.15
2017-08-30T00:48:12.990Z,26.00
2017-08-30T00:50:41.961Z,24.23
2017-08-30T00:53:10.240Z,21.92
2017-08-30T00:55:38.533Z,22.85
2017-08-30T00:58:06.262Z,16.70
2017-08-30T01:00:34.918Z,22.08
2017-08-30T01:03:03.155Z,23.20
2017-08-30T01:05:31.330Z,107.65
2017-08-30T01:07:59.604Z,46.83
2017-08-30T01:10:27.368Z,20.73
2017-08-30T01:12:55.110Z,19.95
2017-08-30T01:15:23.249Z,21.98
2017-08-30T01:17:51.377Z,28.98
2017-08-30T01:20:20.064Z,43.70
2017-08-30T01:22:48.030Z,25.35
2017-08-30T01:25:15.742Z,24.52
2017-08-30T01:27:43.409Z,27.48
2017-08-30T01:30:11.076Z,34.60
2017-08-30T01:32:38.778Z,27.45
2017-08-30T01:35:06.779Z,26.12
2017-08-30T01:37:37.569Z,24.08
2017-08-30T01:40:05.423Z,30.67
2017-08-30T01:42:33.088Z,25.67
2017-08-30T01:45:01.204Z,25.48
2017-08-30T01:47:29.046Z,22.35
2017-08-30T01:49:56.923Z,17.60
2017-08-30T01:52:24.977Z,28.65
2017-08-30T01:54:52.862Z,26.15
2017-08-30T01:57:20.894Z,22.95
2017-08-30T01:59:49.734Z,25.62
2017-08-30T02:02:17.785Z,26.90
2017-08-30T02:04:49.428Z,26.70
2017-08-30T02:07:17.568Z,20.40
2017-08-30T02:09:45.451Z,22.65
2017-08-30T02:12:13.753Z,23.27
2017-08-30T02:14:41.412Z,21.55
2017-08-30T02:17:09.267Z,47.28
2017-08-30T02:19:36.973Z,31.35
2017-08-30T02:22:04.634Z,56.47
2017-08-30T02:24:32.399Z,45.30
2017-08-30T02:27:00.440Z,25.80
2017-08-30T02:29:28.347Z,30.60
2017-08-30T02:31:56.076Z,35.85
2017-08-30T02:34:23.725Z,31.98
2017-08-30T02:36:51.398Z,22.27
2017-08-30T02:39:19.050Z,24.80
2017-08-30T02:41:46.766Z,24.77
2017-08-30T02:44:14.415Z,23.45
2017-08-30T02:46:42.070Z,21.17
2017-08-30T02:49:09.742Z,27.10
2017-08-30T02:51:37.393Z,22.20
2017-08-30T02:54:05.089Z,21.05
2017-08-30T02:56:32.749Z,22.33
2017-08-30T02:59:00.409Z,26.08
2017-08-30T03:01:28.106Z,28.05
2017-08-30T03:03:55.870Z,21.95
2017-08-30T03:06:23.579Z,22.02
2017-08-30T03:08:51.401Z,22.45
2017-08-30T03:11:19.056Z,21.67
2017-08-30T03:13:46.742Z,16.92
2017-08-30T03:16:14.413Z,17.80
2017-08-30T03:18:42.200Z,18.08
2017-08-30T03:21:09.878Z,17.37
2017-08-30T03:23:37.524Z,22.75
2017-08-30T03:26:05.204Z,28.00
2017-08-30T03:28:32.886Z,30.90
2017-08-30T03:31:00.591Z,29.05
2017-08-30T03:33:28.294Z,33.38
2017-08-30T03:35:55.953Z,26.75
2017-08-30T03:38:23.629Z,40.03
2017-08-30T03:40:51.311Z,35.20
2017-08-30T03:43:19.330Z,26.80
2017-08-30T03:45:47.010Z,30.40
2017-08-30T03:48:14.674Z,34.72
2017-08-30T03:50:43.242Z,32.47
2017-08-30T03:53:10.890Z,26.37
2017-08-30T03:55:38.726Z,25.37
2017-08-30T03:58:06.411Z,26.40
2017-08-30T04:00:34.064Z,37.33
2017-08-30T04:03:01.741Z,30.15
2017-08-30T04:05:29.406Z,33.20
2017-08-30T04:07:57.098Z,29.58
2017-08-30T04:10:24.758Z,27.33
2017-08-30T04:12:52.461Z,30.90
2017-08-30T04:15:20.150Z,26.73
2017-08-30T04:17:47.799Z,27.15
2017-08-30T04:20:15.667Z,27.80
2017-08-30T04:22:43.319Z,26.48
2017-08-30T04:25:10.970Z,36.15
2017-08-30T04:27:38.636Z,36.63
2017-08-30T04:30:06.294Z,30.10
2017-08-30T04:32:34.172Z,32.55
2017-08-30T04:35:01.852Z,33.13
2017-08-30T04:37:29.506Z,27.55
2017-08-30T04:39:57.195Z,30.77
2017-08-30T04:42:24.847Z,33.92
2017-08-30T04:44:52.959Z,36.33
2017-08-30T04:47:20.606Z,34.00
2017-08-30T04:49:48.269Z,36.83
2017-08-30T04:52:15.945Z,34.28
2017-08-30T04:54:43.603Z,34.85
2017-08-30T04:57:11.603Z,47.25
2017-08-30T04:59:39.249Z,32.70
2017-08-30T05:02:06.890Z,35.10
2017-08-30T05:04:34.564Z,30.40
2017-08-30T05:07:03.181Z,37.50
2017-08-30T05:09:31.620Z,33.55
2017-08-30T05:11:59.314Z,33.50
2017-08-30T05:14:26.962Z,34.17
2017-08-30T05:16:54.638Z,35.10
2017-08-30T05:19:22.288Z,31.90
2017-08-30T05:21:50.171Z,30.98
2017-08-30T05:24:17.830Z,29.63
2017-08-30T05:26:45.502Z,28.23
2017-08-30T05:29:13.325Z,26.58
2017-08-30T05:31:40.983Z,37.70
2017-08-30T05:34:08.887Z,36.22
2017-08-30T05:36:36.551Z,24.33
2017-08-30T05:39:04.358Z,38.38
2017-08-30T05:41:32.111Z,20.77
2017-08-30T05:43:59.811Z,27.55
2017-08-30T05:46:27.550Z,26.00
2017-08-30T05:48:55.254Z,31.15
2017-08-30T05:51:22.934Z,32.75
2017-08-30T05:53:50.600Z,25.33
2017-08-30T05:56:18.249Z,33.80
2017-08-30T05:58:45.959Z,32.88
2017-08-30T06:01:13.620Z,39.70
2017-08-30T06:03:41.292Z,42.25
2017-08-30T06:06:08.998Z,29.55
2017-08-30T06:08:37.346Z,26.87
2017-08-30T06:11:05.377Z,25.80
2017-08-30T06:13:33.054Z,40.60
2017-08-30T06:16:00.717Z,32.65
2017-08-30T06:18:28.405Z,30.98
2017-08-30T06:20:56.075Z,30.58
2017-08-30T06:23:23.841Z,28.98
2017-08-30T06:25:51.498Z,27.60
2017-08-30T06:28:19.302Z,33.67
2017-08-30T06:30:47.010Z,38.33
2017-08-30T06:33:14.669Z,24.73
2017-08-30T06:38:17.247Z,30.73
2017-08-30T06:40:45.370Z,27.60
2017-08-30T06:43:13.021Z,22.30
2017-08-30T06:45:40.675Z,25.40
2017-08-30T06:48:08.342Z,17.17
2017-08-30T06:50:35.986Z,32.37
2017-08-30T06:53:03.675Z,21.20
2017-08-30T06:55:31.322Z,22.10
2017-08-30T06:57:58.977Z,21.93
2017-08-30T07:00:26.651Z,21.70
2017-08-30T07:02:54.294Z,31.20
2017-08-30T07:05:22.096Z,25.93
2017-08-30T07:07:49.759Z,15.93
2017-08-30T07:10:17.398Z,14.23
2017-08-30T07:12:45.066Z,28.83
2017-08-30T07:15:12.794Z,27.87
2017-08-30T07:17:40.587Z,20.00
2017-08-30T07:20:08.260Z,15.60
2017-08-30T07:22:35.922Z,14.50
2017-08-30T07:25:03.750Z,27.83
2017-08-30T07:27:31.396Z,18.43
2017-08-30T07:29:59.204Z,22.07
2017-08-30T07:32:26.863Z,21.77
2017-08-30T07:34:54.561Z,14.83
2017-08-30T07:37:22.230Z,25.20
2017-08-30T07:39:49.922Z,15.50
2017-08-30T07:42:17.682Z,17.57
2017-08-30T07:44:45.418Z,19.33
2017-08-30T07:47:13.050Z,18.07
2017-08-30T07:49:40.715Z,16.63
2017-08-30T07:52:08.353Z,10.77
2017-08-30T07:54:36.110Z,22.80
2017-08-30T07:57:03.797Z,19.53
2017-08-30T07:59:31.455Z,10.60
2017-08-30T08:01:59.424Z,18.10
2017-08-30T08:04:27.140Z,21.33
2017-08-30T08:06:54.831Z,13.37
2017-08-30T08:09:22.714Z,15.83
2017-08-30T08:11:50.366Z,26.37
2017-08-30T08:14:18.809Z,11.40
2017-08-30T08:16:46.538Z,20.77
2017-08-30T08:19:14.185Z,13.00
2017-08-30T08:21:41.844Z,15.73
2017-08-30T08:24:09.875Z,16.00
2017-08-30T08:26:37.518Z,10.70
2017-08-30T08:29:05.174Z,11.80
2017-08-30T08:31:32.862Z,17.83
2017-08-30T08:34:00.498Z,9.70
2017-08-30T08:36:28.151Z,12.83
2017-08-30T08:38:56.082Z,8.60
2017-08-30T08:41:23.726Z,9.20
2017-08-30T08:43:51.378Z,8.57
2017-08-30T08:46:19.449Z,15.97
2017-08-30T08:48:47.094Z,12.00
2017-08-30T08:51:14.748Z,17.00
2017-08-30T08:53:42.681Z,14.57
2017-08-30T08:56:10.375Z,12.10
2017-08-30T08:58:38.029Z,15.63
2017-08-30T09:01:05.975Z,11.43
2017-08-30T09:03:33.661Z,18.53
2017-08-30T09:06:01.359Z,6.83
2017-08-30T09:08:31.535Z,7.50
2017-08-30T09:10:59.318Z,10.63
2017-08-30T09:13:26.995Z,10.67
2017-08-30T09:15:54.891Z,13.80
2017-08-30T09:18:22.537Z,13.37
2017-08-30T09:20:50.176Z,9.73
2017-08-30T09:23:18.051Z,11.23
2017-08-30T09:25:45.704Z,13.13
2017-08-30T09:28:13.358Z,17.77
2017-08-30T09:30:41.275Z,9.77
2017-08-30T09:33:08.931Z,20.73
2017-08-30T09:35:37.237Z,13.40
2017-08-30T09:38:05.179Z,21.23
2017-08-30T09:40:32.834Z,9.50
2017-08-30T09:43:00.473Z,16.73
2017-08-30T09:45:28.293Z,12.70
2017-08-30T09:47:55.937Z,9.83
2017-08-30T09:50:24.038Z,21.13
2017-08-30T09:52:51.852Z,9.33
2017-08-30T09:55:19.497Z,9.53
2017-08-30T09:57:47.146Z,24.93
2017-08-30T10:00:14.855Z,16.00
2017-08-30T10:02:42.886Z,6.17
2017-08-30T10:05:10.976Z,11.63
2017-08-30T10:07:46.295Z,9.40
2017-08-30T10:10:14.232Z,10.93
2017-08-30T10:12:42.140Z,11.93
2017-08-30T10:15:10.232Z,11.50
2017-08-30T10:17:39.047Z,11.97
2017-08-30T10:20:09.109Z,7.80
2017-08-30T10:22:37.679Z,10.73
2017-08-30T10:25:05.658Z,8.10
2017-08-30T10:27:33.698Z,6.33
2017-08-30T10:30:01.980Z,11.63
2017-08-30T10:32:30.117Z,10.27
2017-08-30T10:34:58.160Z,11.77
2017-08-30T10:37:26.766Z,9.47
2017-08-30T10:39:54.437Z,13.53
2017-08-30T10:42:22.102Z,10.33
2017-08-30T10:44:55.143Z,6.33
2017-08-30T10:47:40.666Z,10.67
2017-08-30T10:50:09.034Z,8.93
2017-08-30T10:52:36.682Z,14.93
2017-08-30T10:55:04.330Z,7.17
2017-08-30T10:57:32.227Z,22.33
2017-08-30T10:59:59.863Z,15.53
2017-08-30T11:02:27.513Z,12.53
2017-08-30T11:04:55.356Z,18.13
2017-08-30T11:07:22.996Z,7.13
2017-08-30T11:09:50.678Z,17.10
2017-08-30T11:12:18.374Z,24.83
2017-08-30T11:14:46.028Z,10.33
2017-08-30T11:17:28.139Z,14.23
2017-08-30T11:19:56.481Z,20.70
2017-08-30T11:22:24.561Z,15.80
2017-08-30T11:24:54.104Z,8.23
2017-08-30T11:27:24.555Z,8.70
2017-08-30T11:29:56.160Z,9.50
2017-08-30T11:32:27.881Z,28.10
2017-08-30T11:34:55.526Z,8.13
2017-08-30T11:37:23.166Z,8.73
2017-08-30T11:39:51.006Z,17.10
2017-08-30T11:42:18.682Z,9.30
2017-08-30T11:44:46.327Z,15.63
2017-08-30T11:47:14.018Z,13.60
2017-08-30T11:52:38.214Z,8.40
2017-08-30T11:55:05.850Z,13.07
2017-08-30T11:57:33.539Z,7.87
2017-08-30T12:00:01.405Z,10.83
2017-08-30T12:02:29.036Z,9.73
2017-08-30T12:04:56.695Z,8.77
2017-08-30T12:07:24.591Z,17.10
2017-08-30T12:09:52.223Z,7.47
2017-08-30T12:12:19.897Z,11.33
2017-08-30T12:14:47.786Z,9.03
2017-08-30T12:17:15.435Z,18.03
2017-08-30T12:19:43.076Z,11.77
2017-08-30T12:22:10.788Z,13.63
2017-08-30T12:24:38.439Z,18.47
2017-08-30T12:27:06.103Z,7.90
2017-08-30T12:29:34.142Z,14.20
2017-08-30T12:32:01.791Z,8.30
2017-08-30T12:34:29.452Z,16.60
2017-08-30T12:37:02.919Z,12.90
2017-08-30T12:39:36.166Z,8.53
2017-08-30T12:42:03.830Z,12.53
2017-08-30T12:44:31.603Z,9.63
2017-08-30T12:46:59.258Z,9.33
2017-08-30T12:49:26.981Z,12.03
2017-08-30T12:51:54.637Z,12.03
2017-08-30T12:54:22.298Z,10.00
2017-08-30T12:56:49.986Z,17.63
2017-08-30T12:59:17.647Z,7.67
2017-08-30T13:01:45.482Z,21.73
2017-08-30T13:04:13.162Z,11.90
2017-08-30T13:06:40.805Z,11.00
2017-08-30T13:09:08.506Z,14.20
2017-08-30T13:11:36.158Z,13.27
2017-08-30T13:14:03.823Z,11.57
2017-08-30T13:16:31.554Z,14.53
2017-08-30T13:18:59.227Z,13.53
2017-08-30T13:21:26.880Z,10.80
2017-08-30T13:23:54.577Z,12.50
2017-08-30T13:26:22.235Z,18.20
2017-08-30T13:28:49.874Z,9.60
2017-08-30T13:31:17.788Z,15.60
2017-08-30T13:33:45.451Z,14.27
2017-08-30T13:36:13.110Z,30.57
2017-08-30T13:38:40.823Z,15.40
2017-08-30T13:41:08.462Z,21.97
2017-08-30T13:43:36.128Z,14.53
2017-08-30T13:46:03.937Z,14.20
2017-08-30T13:48:31.936Z,16.30
2017-08-30T13:50:59.579Z,25.60
2017-08-30T13:53:27.268Z,18.93
2017-08-30T13:55:54.919Z,14.83
2017-08-30T13:58:22.587Z,17.40
2017-08-30T14:00:50.425Z,10.40
2017-08-30T14:03:18.117Z,14.67
2017-08-30T14:05:45.824Z,17.17
2017-08-30T14:08:13.827Z,12.30
2017-08-30T14:10:41.496Z,11.70
2017-08-30T14:13:09.140Z,22.70
2017-08-30T14:15:36.835Z,9.40
2017-08-30T14:18:04.481Z,12.60
2017-08-30T14:20:32.131Z,14.80
2017-08-30T14:23:00.050Z,21.40
2017-08-30T14:25:27.691Z,22.73
2017-08-30T14:27:55.345Z,24.70
2017-08-30T14:30:23.164Z,13.03
2017-08-30T14:32:50.811Z,21.17
2017-08-30T14:35:18.455Z,38.33
2017-08-30T14:37:46.484Z,19.23
2017-08-30T14:40:14.146Z,19.43
2017-08-30T14:42:41.824Z,28.70
2017-08-30T14:45:09.695Z,19.60
2017-08-30T14:47:37.744Z,26.80
2017-08-30T14:50:05.837Z,29.73
2017-08-30T14:52:34.438Z,18.60
2017-08-30T14:55:02.499Z,17.53
2017-08-30T14:57:30.202Z,27.10
2017-08-30T14:59:57.880Z,20.73
2017-08-30T15:02:25.560Z,20.07
2017-08-30T15:04:53.224Z,22.73
2017-08-30T15:07:20.936Z,14.53
2017-08-30T15:09:48.579Z,19.40
2017-08-30T15:12:16.226Z,16.70
2017-08-30T15:14:43.938Z,23.00
2017-08-30T15:17:11.617Z,22.47
2017-08-30T15:19:39.265Z,20.57
2017-08-30T15:22:06.944Z,21.90
2017-08-30T15:24:34.599Z,18.00
2017-08-30T15:27:02.288Z,13.80
2017-08-30T15:29:30.347Z,14.90
2017-08-30T15:31:58.015Z,22.07
2017-08-30T15:34:26.013Z,16.73
2017-08-30T15:36:54.529Z,18.90
2017-08-30T15:39:22.175Z,36.27
2017-08-30T15:41:50.342Z,24.27
2017-08-30T15:44:18.064Z,22.60
2017-08-30T15:46:45.731Z,19.17
2017-08-30T15:49:13.392Z,21.00
2017-08-30T15:51:41.198Z,27.43
2017-08-30T15:54:08.880Z,14.03
2017-08-30T15:56:36.541Z,18.93
2017-08-30T15:59:08.996Z,24.27
2017-08-30T16:01:36.650Z,33.07
2017-08-30T16:04:04.424Z,28.03
2017-08-30T16:06:32.216Z,25.23
2017-08-30T16:09:01.220Z,25.93
2017-08-30T16:11:29.052Z,34.23
2017-08-30T16:13:56.966Z,21.53
2017-08-30T16:16:24.644Z,25.30
2017-08-30T16:18:52.304Z,25.93
2017-08-30T16:21:20.772Z,18.80
2017-08-30T16:23:48.575Z,23.30
2017-08-30T16:26:16.225Z,25.90
2017-08-30T16:28:43.900Z,33.23
2017-08-30T16:31:12.049Z,25.73
2017-08-30T16:33:39.696Z,19.97
2017-08-30T16:36:07.422Z,24.43
2017-08-30T16:38:35.359Z,24.90
2017-08-30T16:41:03.510Z,26.73
2017-08-30T16:43:31.245Z,21.50
2017-08-30T16:45:58.892Z,26.60
2017-08-30T16:48:26.537Z,28.30
2017-08-30T16:50:54.221Z,25.70
2017-08-30T16:53:21.946Z,32.27
2017-08-30T16:55:49.613Z,24.90
2017-08-30T16:58:17.424Z,40.17
2017-08-30T17:00:45.573Z,25.73
2017-08-30T17:03:14.000Z,20.10
2017-08-30T17:05:41.771Z,36.77
2017-08-30T17:08:09.716Z,43.03
2017-08-30T17:10:38.131Z,30.00
2017-08-30T17:13:05.881Z,26.63
2017-08-30T17:15:34.058Z,27.80
2017-08-30T17:18:01.792Z,24.03
2017-08-30T17:20:29.624Z,18.77
2017-08-30T17:22:57.371Z,42.73
2017-08-30T17:25:25.051Z,19.97
2017-08-30T17:27:53.035Z,32.83
2017-08-30T17:30:20.696Z,25.20
2017-08-30T17:32:48.623Z,28.80
2017-08-30T17:35:16.298Z,27.87
2017-08-30T17:37:43.955Z,52.90
2017-08-30T17:40:11.604Z,32.93
2017-08-30T17:42:41.137Z,28.80
2017-08-30T17:45:08.790Z,25.67
2017-08-30T17:47:36.438Z,22.00
2017-08-30T17:50:04.415Z,25.17
2017-08-30T17:52:36.386Z,21.03
2017-08-30T17:55:04.121Z,33.03
2017-08-30T17:57:32.455Z,29.63
2017-08-30T18:00:00.222Z,25.77
2017-08-30T18:02:27.922Z,21.87
2017-08-30T18:04:55.646Z,22.97
2017-08-30T18:07:23.325Z,26.43
2017-08-30T18:09:51.318Z,60.53
2017-08-30T18:12:19.139Z,26.93
2017-08-30T18:14:46.821Z,23.93
2017-08-30T18:17:14.880Z,27.10
2017-08-30T18:19:42.624Z,25.60
2017-08-30T18:22:10.293Z,20.40
2017-08-30T18:24:38.022Z,18.63
2017-08-30T18:27:05.723Z,24.47
2017-08-30T18:29:33.880Z,26.13
2017-08-30T18:32:01.526Z,46.83
2017-08-30T18:34:29.680Z,32.77
2017-08-30T18:36:57.420Z,32.83
2017-08-30T18:39:25.078Z,30.47
2017-08-30T18:41:53.034Z,97.97
2017-08-30T18:44:20.910Z,26.93
2017-08-30T18:46:48.892Z,20.20
2017-08-30T18:49:16.978Z,26.90
2017-08-30T18:51:44.727Z,34.70
2017-08-30T18:54:12.382Z,37.50
2017-08-30T18:56:40.079Z,91.57
2017-08-30T18:59:07.740Z,113.17
2017-08-30T19:01:35.429Z,65.17
2017-08-30T19:04:03.135Z,49.00
2017-08-30T19:06:30.836Z,34.63
2017-08-30T19:08:59.116Z,40.60
2017-08-30T19:11:27.187Z,37.73
2017-08-30T19:13:55.001Z,57.23
2017-08-30T19:16:22.739Z,60.00
2017-08-30T19:18:50.442Z,46.80
2017-08-30T19:21:18.654Z,53.73
2017-08-30T19:23:46.702Z,40.57
2017-08-30T19:26:14.683Z,37.83
2017-08-30T19:28:42.346Z,26.13
2017-08-30T19:31:10.001Z,25.70
2017-08-30T19:33:37.696Z,35.13
2017-08-30T19:36:05.407Z,30.13
2017-08-30T19:38:33.061Z,37.13
2017-08-30T19:41:00.753Z,24.77
2017-08-30T19:43:28.486Z,40.17
2017-08-30T19:45:56.141Z,28.00
2017-08-30T19:48:24.175Z,38.03
2017-08-30T19:50:51.851Z,38.00
2017-08-30T19:53:19.530Z,34.90
2017-08-30T19:55:47.290Z,43.83
2017-08-30T19:58:15.145Z,36.57
2017-08-30T20:00:42.802Z,34.50
2017-08-30T20:03:10.501Z,39.87
2017-08-30T20:05:38.162Z,35.07
2017-08-30T20:08:05.819Z,49.27
2017-08-30T20:10:34.678Z,26.63
2017-08-30T20:13:02.370Z,20.93
2017-08-30T20:15:30.035Z,38.57
2017-08-30T20:17:58.242Z,22.93
2017-08-30T20:20:26.104Z,42.70
2017-08-30T20:22:53.780Z,35.57
2017-08-30T20:25:21.554Z,38.53
2017-08-30T20:27:49.215Z,37.23
2017-08-30T20:30:16.948Z,39.33
2017-08-30T20:32:44.811Z,36.63
2017-08-30T20:35:12.979Z,80.63
2017-08-30T20:37:40.752Z,79.13
2017-08-30T20:40:08.818Z,119.27
2017-08-30T20:42:36.511Z,152.40
2017-08-30T20:45:04.590Z,82.97
2017-08-30T20:47:32.282Z,136.40
2017-08-30T20:49:59.941Z,308.17
2017-08-30T20:52:27.619Z,161.70
2017-08-30T20:54:55.293Z,88.90
2017-08-30T20:57:22.951Z,106.87
2017-08-30T20:59:50.611Z,156.60
2017-08-30T21:02:20.058Z,61.73
2017-08-30T21:04:47.738Z,68.13
2017-08-30T21:07:15.654Z,75.87
2017-08-30T21:09:43.380Z,52.00
2017-08-30T21:12:11.168Z,32.60
2017-08-30T21:14:38.828Z,35.60
2017-08-30T21:17:06.568Z,67.70
2017-08-30T21:19:34.417Z,85.87
2017-08-30T21:22:02.080Z,52.23
2017-08-30T21:24:29.758Z,58.03
2017-08-30T21:26:57.793Z,33.30
2017-08-30T21:29:26.054Z,28.87
2017-08-30T21:31:53.791Z,48.87
2017-08-30T21:34:21.698Z,27.27
2017-08-30T21:36:49.363Z,28.53
2017-08-30T21:39:17.023Z,42.23
2017-08-30T21:41:45.614Z,28.83
2017-08-30T21:44:13.292Z,33.73
2017-08-30T21:46:40.943Z,25.13
2017-08-30T21:49:08.901Z,34.27
2017-08-30T21:51:36.559Z,24.80
2017-08-30T21:54:04.218Z,29.30
2017-08-30T21:56:32.196Z,44.00
2017-08-30T21:58:59.850Z,36.10
2017-08-30T22:01:27.543Z,54.73
2017-08-30T22:03:55.485Z,53.50
2017-08-30T22:06:23.147Z,34.93
2017-08-30T22:08:50.814Z,43.87
2017-08-30T22:11:21.443Z,81.80
2017-08-30T22:14:06.829Z,29.13
2017-08-30T22:16:35.630Z,53.93
2017-08-30T22:19:03.290Z,50.53
2017-08-30T22:21:30.970Z,31.70
2017-08-30T22:23:58.760Z,41.23
2017-08-30T22:26:26.419Z,37.33
2017-08-30T22:28:54.069Z,31.07
2017-08-30T22:31:22.085Z,37.30
2017-08-30T22:33:49.747Z,47.10
2017-08-30T22:36:17.397Z,39.67
2017-08-30T22:38:45.276Z,40.77
2017-08-30T22:41:13.695Z,29.57
2017-08-30T22:43:41.358Z,38.43
2017-08-30T22:46:09.087Z,32.60
2017-08-30T22:48:36.755Z,47.60
2017-08-30T22:51:04.410Z,34.10
2017-08-30T22:53:33.458Z,39.23
2017-08-30T22:56:01.471Z,34.70
2017-08-30T22:58:30.317Z,38.03
2017-08-30T23:00:58.592Z,32.23
2017-08-30T23:03:26.459Z,34.15
2017-08-30T23:05:54.599Z,30.70
2017-08-30T23:08:22.879Z,49.50
2017-08-30T23:10:50.902Z,43.40
2017-08-30T23:13:18.550Z,36.47
2017-08-30T23:15:46.593Z,36.30
2017-08-30T23:18:14.299Z,40.33
2017-08-30T23:20:42.198Z,35.83
2017-08-30T23:23:10.823Z,39.87
2017-08-30T23:25:39.308Z,37.37
2017-08-30T23:28:08.245Z,28.23
2017-08-30T23:30:36.369Z,33.90
2017-08-30T23:33:04.831Z,31.80
2017-08-30T23:35:32.638Z,34.40
2017-08-30T23:38:00.312Z,43.93
2017-08-30T23:40:28.467Z,23.67
2017-08-30T23:42:57.773Z,33.10
2017-08-30T23:45:25.670Z,22.87
2017-08-30T23:47:54.296Z,28.50
2017-08-30T23:50:23.126Z,23.43
2017-08-30T23:52:51.162Z,25.30
2017-08-30T23:55:19.154Z,24.60
2017-08-30T23:57:47.110Z,38.10
